sensor_id;sensor_type;location;lat;lon;timestamp;temperature;humidity
24085;DHT22;12268;52.110;5.548;2022-08-19T00:01:28;21.40;99.90
24085;DHT22;12268;52.110;5.548;2022-08-19T00:03:55;21.50;99.90
24085;DHT22;12268;52.110;5.548;2022-08-19T00:06:21;21.40;99.90
24085;DHT22;12268;52.110;5.548;2022-08-19T00:08:46;21.30;99.90
24085;DHT22;12268;52.110;5.548;2022-08-19T00:11:12;21.20;99.90
24085;DHT22;12268;52.110;5.548;2022-08-19T00:13:38;21.20;99.90
24085;DHT22;12268;52.110;5.548;2022-08-19T00:16:04;21.10;99.90
24085;DHT22;12268;52.110;5.548;2022-08-19T00:18:31;21.10;99.90
24085;DHT22;12268;52.110;5.548;2022-08-19T00:20:57;21.30;99.90
24085;DHT22;12268;52.110;5.548;2022-08-19T00:23:23;21.30;99.90
24085;DHT22;12268;52.110;5.548;2022-08-19T00:25:48;21.10;99.90
24085;DHT22;12268;52.110;5.548;2022-08-19T00:28:14;21.00;99.90
24085;DHT22;12268;52.110;5.548;2022-08-19T00:30:39;21.00;99.90
24085;DHT22;12268;52.110;5.548;2022-08-19T00:33:06;21.00;99.90
24085;DHT22;12268;52.110;5.548;2022-08-19T00:35:33;21.00;99.90
24085;DHT22;12268;52.110;5.548;2022-08-19T00:37:59;21.00;99.90
24085;DHT22;12268;52.110;5.548;2022-08-19T00:40:25;21.00;99.90
24085;DHT22;12268;52.110;5.548;2022-08-19T00:42:50;20.90;99.90
24085;DHT22;12268;52.110;5.548;2022-08-19T00:45:22;20.80;99.90
24085;DHT22;12268;52.110;5.548;2022-08-19T00:47:48;20.80;99.90
24085;DHT22;12268;52.110;5.548;2022-08-19T00:50:15;20.90;99.90
24085;DHT22;12268;52.110;5.548;2022-08-19T00:52:47;20.90;99.90
24085;DHT22;12268;52.110;5.548;2022-08-19T00:55:20;20.80;99.90
24085;DHT22;12268;52.110;5.548;2022-08-19T00:57:53;20.80;99.90
24085;DHT22;12268;52.110;5.548;2022-08-19T01:00:20;20.90;99.90
24085;DHT22;12268;52.110;5.548;2022-08-19T01:02:47;20.80;99.90
24085;DHT22;12268;52.110;5.548;2022-08-19T01:05:17;20.70;99.90
24085;DHT22;12268;52.110;5.548;2022-08-19T01:07:44;20.70;99.90
24085;DHT22;12268;52.110;5.548;2022-08-19T01:10:12;20.60;99.90
24085;DHT22;12268;52.110;5.548;2022-08-19T01:12:39;20.60;99.90
24085;DHT22;12268;52.110;5.548;2022-08-19T01:15:09;20.70;99.90
24085;DHT22;12268;52.110;5.548;2022-08-19T01:17:38;20.80;99.90
24085;DHT22;12268;52.110;5.548;2022-08-19T01:20:06;20.70;99.90
24085;DHT22;12268;52.110;5.548;2022-08-19T01:22:54;20.60;99.90
24085;DHT22;12268;52.110;5.548;2022-08-19T01:25:24;20.40;99.90
24085;DHT22;12268;52.110;5.548;2022-08-19T01:27:52;20.40;99.90
24085;DHT22;12268;52.110;5.548;2022-08-19T01:30:21;20.50;99.90
24085;DHT22;12268;52.110;5.548;2022-08-19T01:32:48;20.50;99.90
24085;DHT22;12268;52.110;5.548;2022-08-19T01:35:14;20.50;99.90
24085;DHT22;12268;52.110;5.548;2022-08-19T01:37:51;20.50;99.90
24085;DHT22;12268;52.110;5.548;2022-08-19T01:40:18;20.50;99.90
24085;DHT22;12268;52.110;5.548;2022-08-19T01:42:49;20.50;99.90
24085;DHT22;12268;52.110;5.548;2022-08-19T01:45:16;20.40;99.90
24085;DHT22;12268;52.110;5.548;2022-08-19T01:47:42;20.40;99.90
24085;DHT22;12268;52.110;5.548;2022-08-19T01:50:10;20.40;99.90
24085;DHT22;12268;52.110;5.548;2022-08-19T01:52:37;20.40;99.90
24085;DHT22;12268;52.110;5.548;2022-08-19T01:55:04;20.40;99.90
24085;DHT22;12268;52.110;5.548;2022-08-19T02:02:41;20.30;99.90
24085;DHT22;12268;52.110;5.548;2022-08-19T02:05:08;20.30;99.90
24085;DHT22;12268;52.110;5.548;2022-08-19T02:07:34;20.30;99.90
24085;DHT22;12268;52.110;5.548;2022-08-19T02:10:10;20.30;99.90
24085;DHT22;12268;52.110;5.548;2022-08-19T02:12:36;20.40;99.90
24085;DHT22;12268;52.110;5.548;2022-08-19T02:15:02;20.40;99.90
24085;DHT22;12268;52.110;5.548;2022-08-19T02:17:29;20.30;99.90
24085;DHT22;12268;52.110;5.548;2022-08-19T02:19:55;20.20;99.90
24085;DHT22;12268;52.110;5.548;2022-08-19T02:22:22;20.10;99.90
24085;DHT22;12268;52.110;5.548;2022-08-19T02:24:47;20.00;99.90
24085;DHT22;12268;52.110;5.548;2022-08-19T02:27:14;20.00;99.90
24085;DHT22;12268;52.110;5.548;2022-08-19T02:29:41;20.00;99.90
24085;DHT22;12268;52.110;5.548;2022-08-19T02:32:07;19.90;99.90
24085;DHT22;12268;52.110;5.548;2022-08-19T02:34:33;19.90;99.90
24085;DHT22;12268;52.110;5.548;2022-08-19T02:36:58;19.90;99.90
24085;DHT22;12268;52.110;5.548;2022-08-19T02:39:24;19.80;99.90
24085;DHT22;12268;52.110;5.548;2022-08-19T02:41:49;19.70;99.90
24085;DHT22;12268;52.110;5.548;2022-08-19T02:44:16;19.70;99.90
24085;DHT22;12268;52.110;5.548;2022-08-19T02:46:41;19.70;99.90
24085;DHT22;12268;52.110;5.548;2022-08-19T02:49:07;19.60;99.90
24085;DHT22;12268;52.110;5.548;2022-08-19T02:51:36;19.60;99.90
24085;DHT22;12268;52.110;5.548;2022-08-19T02:54:03;19.60;99.90
24085;DHT22;12268;52.110;5.548;2022-08-19T02:56:29;19.60;99.90
24085;DHT22;12268;52.110;5.548;2022-08-19T02:58:56;19.70;99.90
24085;DHT22;12268;52.110;5.548;2022-08-19T03:01:25;19.60;99.90
24085;DHT22;12268;52.110;5.548;2022-08-19T03:03:51;19.60;99.90
24085;DHT22;12268;52.110;5.548;2022-08-19T03:06:17;19.70;99.90
24085;DHT22;12268;52.110;5.548;2022-08-19T03:08:44;19.80;99.90
24085;DHT22;12268;52.110;5.548;2022-08-19T03:11:20;19.70;99.90
24085;DHT22;12268;52.110;5.548;2022-08-19T03:13:46;19.70;99.90
24085;DHT22;12268;52.110;5.548;2022-08-19T03:16:15;19.70;99.90
24085;DHT22;12268;52.110;5.548;2022-08-19T03:18:41;19.50;99.90
24085;DHT22;12268;52.110;5.548;2022-08-19T03:21:07;19.60;99.90
24085;DHT22;12268;52.110;5.548;2022-08-19T03:23:32;19.50;99.90
24085;DHT22;12268;52.110;5.548;2022-08-19T03:25:58;19.60;99.90
24085;DHT22;12268;52.110;5.548;2022-08-19T03:28:24;19.60;99.90
24085;DHT22;12268;52.110;5.548;2022-08-19T03:31:17;19.60;99.90
24085;DHT22;12268;52.110;5.548;2022-08-19T03:33:44;19.60;99.90
24085;DHT22;12268;52.110;5.548;2022-08-19T03:36:13;19.60;99.90
24085;DHT22;12268;52.110;5.548;2022-08-19T03:38:45;19.60;99.90
24085;DHT22;12268;52.110;5.548;2022-08-19T03:41:17;19.50;99.90
24085;DHT22;12268;52.110;5.548;2022-08-19T03:43:44;19.40;99.90
24085;DHT22;12268;52.110;5.548;2022-08-19T03:46:14;19.40;99.90
24085;DHT22;12268;52.110;5.548;2022-08-19T03:48:41;19.50;99.90
24085;DHT22;12268;52.110;5.548;2022-08-19T03:51:07;19.50;99.90
24085;DHT22;12268;52.110;5.548;2022-08-19T03:53:40;19.50;99.90
24085;DHT22;12268;52.110;5.548;2022-08-19T03:56:09;19.60;99.90
24085;DHT22;12268;52.110;5.548;2022-08-19T03:58:34;19.60;99.90
24085;DHT22;12268;52.110;5.548;2022-08-19T04:01:00;19.50;99.90
24085;DHT22;12268;52.110;5.548;2022-08-19T04:03:26;19.40;99.90
24085;DHT22;12268;52.110;5.548;2022-08-19T04:05:53;19.40;99.90
24085;DHT22;12268;52.110;5.548;2022-08-19T04:08:19;19.30;99.90
24085;DHT22;12268;52.110;5.548;2022-08-19T04:10:48;19.40;99.90
24085;DHT22;12268;52.110;5.548;2022-08-19T04:13:16;19.40;99.90
24085;DHT22;12268;52.110;5.548;2022-08-19T04:15:43;19.40;99.90
24085;DHT22;12268;52.110;5.548;2022-08-19T04:18:10;19.40;99.90
24085;DHT22;12268;52.110;5.548;2022-08-19T04:20:41;19.40;99.90
24085;DHT22;12268;52.110;5.548;2022-08-19T04:23:07;19.40;99.90
24085;DHT22;12268;52.110;5.548;2022-08-19T04:25:41;19.30;99.90
24085;DHT22;12268;52.110;5.548;2022-08-19T04:28:07;19.20;99.90
24085;DHT22;12268;52.110;5.548;2022-08-19T04:30:40;19.20;99.90
24085;DHT22;12268;52.110;5.548;2022-08-19T04:33:06;19.20;99.90
24085;DHT22;12268;52.110;5.548;2022-08-19T04:35:51;19.30;99.90
24085;DHT22;12268;52.110;5.548;2022-08-19T04:38:20;19.50;99.90
24085;DHT22;12268;52.110;5.548;2022-08-19T04:40:50;19.50;99.90
24085;DHT22;12268;52.110;5.548;2022-08-19T04:43:36;19.50;99.90
24085;DHT22;12268;52.110;5.548;2022-08-19T04:46:10;19.50;99.90
24085;DHT22;12268;52.110;5.548;2022-08-19T04:48:37;19.40;99.90
24085;DHT22;12268;52.110;5.548;2022-08-19T04:51:07;19.40;99.90
24085;DHT22;12268;52.110;5.548;2022-08-19T04:53:35;19.30;99.90
24085;DHT22;12268;52.110;5.548;2022-08-19T04:56:06;19.50;99.90
24085;DHT22;12268;52.110;5.548;2022-08-19T04:58:33;19.50;99.90
24085;DHT22;12268;52.110;5.548;2022-08-19T05:00:59;19.40;99.90
24085;DHT22;12268;52.110;5.548;2022-08-19T05:03:25;19.30;99.90
24085;DHT22;12268;52.110;5.548;2022-08-19T05:05:50;19.20;99.90
24085;DHT22;12268;52.110;5.548;2022-08-19T05:08:19;19.10;99.90
24085;DHT22;12268;52.110;5.548;2022-08-19T05:10:50;19.10;99.90
24085;DHT22;12268;52.110;5.548;2022-08-19T05:13:17;19.10;99.90
24085;DHT22;12268;52.110;5.548;2022-08-19T05:15:44;19.10;99.90
24085;DHT22;12268;52.110;5.548;2022-08-19T05:18:10;19.20;99.90
24085;DHT22;12268;52.110;5.548;2022-08-19T05:20:54;19.30;99.90
24085;DHT22;12268;52.110;5.548;2022-08-19T05:23:38;19.30;99.90
24085;DHT22;12268;52.110;5.548;2022-08-19T05:26:04;19.30;99.90
24085;DHT22;12268;52.110;5.548;2022-08-19T05:28:29;19.40;99.90
24085;DHT22;12268;52.110;5.548;2022-08-19T05:30:55;19.50;99.90
24085;DHT22;12268;52.110;5.548;2022-08-19T05:33:22;19.50;99.90
24085;DHT22;12268;52.110;5.548;2022-08-19T05:35:48;19.80;99.90
24085;DHT22;12268;52.110;5.548;2022-08-19T05:38:16;20.00;99.90
24085;DHT22;12268;52.110;5.548;2022-08-19T05:40:42;20.00;99.90
24085;DHT22;12268;52.110;5.548;2022-08-19T05:43:11;20.00;99.90
24085;DHT22;12268;52.110;5.548;2022-08-19T05:45:41;19.90;99.90
24085;DHT22;12268;52.110;5.548;2022-08-19T05:48:08;19.80;99.90
24085;DHT22;12268;52.110;5.548;2022-08-19T05:50:40;19.80;99.90
24085;DHT22;12268;52.110;5.548;2022-08-19T05:53:06;19.90;99.90
24085;DHT22;12268;52.110;5.548;2022-08-19T05:55:32;20.10;99.90
24085;DHT22;12268;52.110;5.548;2022-08-19T05:57:58;20.30;99.90
24085;DHT22;12268;52.110;5.548;2022-08-19T06:00:23;20.50;99.90
24085;DHT22;12268;52.110;5.548;2022-08-19T06:02:49;20.70;99.90
24085;DHT22;12268;52.110;5.548;2022-08-19T06:05:16;20.80;99.90
24085;DHT22;12268;52.110;5.548;2022-08-19T06:07:42;20.80;99.90
24085;DHT22;12268;52.110;5.548;2022-08-19T06:10:10;20.90;99.90
24085;DHT22;12268;52.110;5.548;2022-08-19T06:12:37;20.90;99.90
24085;DHT22;12268;52.110;5.548;2022-08-19T06:15:11;21.00;99.90
24085;DHT22;12268;52.110;5.548;2022-08-19T06:17:37;21.20;99.90
24085;DHT22;12268;52.110;5.548;2022-08-19T06:20:08;21.20;99.90
24085;DHT22;12268;52.110;5.548;2022-08-19T06:22:39;21.20;99.90
24085;DHT22;12268;52.110;5.548;2022-08-19T06:25:06;21.30;99.90
24085;DHT22;12268;52.110;5.548;2022-08-19T06:27:31;21.40;99.90
24085;DHT22;12268;52.110;5.548;2022-08-19T06:29:58;21.50;99.90
24085;DHT22;12268;52.110;5.548;2022-08-19T06:32:24;21.80;99.90
24085;DHT22;12268;52.110;5.548;2022-08-19T06:34:49;21.90;99.90
24085;DHT22;12268;52.110;5.548;2022-08-19T06:37:15;22.10;99.90
24085;DHT22;12268;52.110;5.548;2022-08-19T06:39:43;22.10;99.90
24085;DHT22;12268;52.110;5.548;2022-08-19T06:42:10;22.10;99.90
24085;DHT22;12268;52.110;5.548;2022-08-19T06:44:42;22.10;99.90
24085;DHT22;12268;52.110;5.548;2022-08-19T06:47:11;22.20;99.90
24085;DHT22;12268;52.110;5.548;2022-08-19T06:49:37;22.20;99.90
24085;DHT22;12268;52.110;5.548;2022-08-19T06:52:03;22.30;99.90
24085;DHT22;12268;52.110;5.548;2022-08-19T06:54:29;22.50;99.90
24085;DHT22;12268;52.110;5.548;2022-08-19T06:56:57;22.60;99.90
24085;DHT22;12268;52.110;5.548;2022-08-19T06:59:24;22.80;99.90
24085;DHT22;12268;52.110;5.548;2022-08-19T07:01:54;22.80;99.90
24085;DHT22;12268;52.110;5.548;2022-08-19T07:04:23;22.70;99.90
24085;DHT22;12268;52.110;5.548;2022-08-19T07:06:50;22.50;99.90
24085;DHT22;12268;52.110;5.548;2022-08-19T07:09:21;22.10;99.90
24085;DHT22;12268;52.110;5.548;2022-08-19T07:11:48;22.00;99.90
24085;DHT22;12268;52.110;5.548;2022-08-19T07:14:16;21.80;99.90
24085;DHT22;12268;52.110;5.548;2022-08-19T07:16:44;21.70;99.90
24085;DHT22;12268;52.110;5.548;2022-08-19T07:19:11;21.80;99.90
24085;DHT22;12268;52.110;5.548;2022-08-19T07:21:36;22.00;99.90
24085;DHT22;12268;52.110;5.548;2022-08-19T07:24:03;22.30;99.90
24085;DHT22;12268;52.110;5.548;2022-08-19T07:26:31;22.50;99.90
24085;DHT22;12268;52.110;5.548;2022-08-19T07:28:58;22.50;99.90
24085;DHT22;12268;52.110;5.548;2022-08-19T07:31:26;22.50;99.90
24085;DHT22;12268;52.110;5.548;2022-08-19T07:33:53;22.50;99.90
24085;DHT22;12268;52.110;5.548;2022-08-19T07:36:23;22.50;99.90
24085;DHT22;12268;52.110;5.548;2022-08-19T07:38:50;22.60;99.90
24085;DHT22;12268;52.110;5.548;2022-08-19T07:41:22;22.70;99.90
24085;DHT22;12268;52.110;5.548;2022-08-19T07:43:49;22.60;99.90
24085;DHT22;12268;52.110;5.548;2022-08-19T07:46:15;22.60;99.90
24085;DHT22;12268;52.110;5.548;2022-08-19T07:48:43;22.60;99.90
24085;DHT22;12268;52.110;5.548;2022-08-19T07:51:14;22.70;99.90
24085;DHT22;12268;52.110;5.548;2022-08-19T07:53:40;23.00;99.90
24085;DHT22;12268;52.110;5.548;2022-08-19T07:56:06;23.10;99.90
24085;DHT22;12268;52.110;5.548;2022-08-19T07:58:34;23.40;99.90
24085;DHT22;12268;52.110;5.548;2022-08-19T08:01:01;23.70;99.90
24085;DHT22;12268;52.110;5.548;2022-08-19T08:03:28;23.70;99.90
24085;DHT22;12268;52.110;5.548;2022-08-19T08:06:13;23.60;99.90
24085;DHT22;12268;52.110;5.548;2022-08-19T08:08:58;23.60;99.90
24085;DHT22;12268;52.110;5.548;2022-08-19T08:11:40;23.60;99.90
24085;DHT22;12268;52.110;5.548;2022-08-19T08:14:06;23.70;99.90
24085;DHT22;12268;52.110;5.548;2022-08-19T08:16:38;23.90;99.90
24085;DHT22;12268;52.110;5.548;2022-08-19T08:19:05;24.20;99.90
24085;DHT22;12268;52.110;5.548;2022-08-19T08:21:32;24.20;99.90
24085;DHT22;12268;52.110;5.548;2022-08-19T08:23:58;24.30;99.90
24085;DHT22;12268;52.110;5.548;2022-08-19T08:26:24;24.40;99.90
24085;DHT22;12268;52.110;5.548;2022-08-19T08:28:50;24.60;99.90
24085;DHT22;12268;52.110;5.548;2022-08-19T08:31:16;25.10;99.90
24085;DHT22;12268;52.110;5.548;2022-08-19T08:33:43;25.00;99.90
24085;DHT22;12268;52.110;5.548;2022-08-19T08:36:11;24.80;99.90
24085;DHT22;12268;52.110;5.548;2022-08-19T08:38:37;24.70;99.90
24085;DHT22;12268;52.110;5.548;2022-08-19T08:41:33;24.60;99.90
24085;DHT22;12268;52.110;5.548;2022-08-19T08:44:00;24.50;99.90
24085;DHT22;12268;52.110;5.548;2022-08-19T08:46:46;24.30;99.90
24085;DHT22;12268;52.110;5.548;2022-08-19T08:49:36;24.30;99.90
24085;DHT22;12268;52.110;5.548;2022-08-19T08:52:06;24.40;99.90
24085;DHT22;12268;52.110;5.548;2022-08-19T08:54:46;24.20;99.90
24085;DHT22;12268;52.110;5.548;2022-08-19T08:57:21;24.20;99.90
24085;DHT22;12268;52.110;5.548;2022-08-19T08:59:50;24.40;99.90
24085;DHT22;12268;52.110;5.548;2022-08-19T09:02:18;24.70;99.90
24085;DHT22;12268;52.110;5.548;2022-08-19T09:04:45;25.30;99.90
24085;DHT22;12268;52.110;5.548;2022-08-19T09:10:10;26.10;99.90
24085;DHT22;12268;52.110;5.548;2022-08-19T09:15:31;27.40;99.90
24085;DHT22;12268;52.110;5.548;2022-08-19T09:18:02;27.70;99.90
24085;DHT22;12268;52.110;5.548;2022-08-19T09:20:28;28.60;99.90
24085;DHT22;12268;52.110;5.548;2022-08-19T09:22:56;28.60;99.90
24085;DHT22;12268;52.110;5.548;2022-08-19T09:25:23;28.60;99.90
24085;DHT22;12268;52.110;5.548;2022-08-19T09:27:50;28.00;99.90
24085;DHT22;12268;52.110;5.548;2022-08-19T09:30:23;27.60;99.90
24085;DHT22;12268;52.110;5.548;2022-08-19T09:32:49;27.10;99.90
24085;DHT22;12268;52.110;5.548;2022-08-19T09:35:18;27.10;99.90
24085;DHT22;12268;52.110;5.548;2022-08-19T09:37:44;27.00;99.90
24085;DHT22;12268;52.110;5.548;2022-08-19T09:40:10;27.20;99.90
24085;DHT22;12268;52.110;5.548;2022-08-19T09:42:36;27.60;99.90
24085;DHT22;12268;52.110;5.548;2022-08-19T09:45:03;27.80;99.90
24085;DHT22;12268;52.110;5.548;2022-08-19T09:47:29;28.30;99.90
24085;DHT22;12268;52.110;5.548;2022-08-19T09:49:55;29.90;99.90
24085;DHT22;12268;52.110;5.548;2022-08-19T09:52:21;30.40;99.90
24085;DHT22;12268;52.110;5.548;2022-08-19T09:54:46;31.00;99.90
24085;DHT22;12268;52.110;5.548;2022-08-19T09:57:12;31.10;99.90
24085;DHT22;12268;52.110;5.548;2022-08-19T09:59:39;31.50;99.90
24085;DHT22;12268;52.110;5.548;2022-08-19T10:02:05;31.30;99.90
24085;DHT22;12268;52.110;5.548;2022-08-19T10:04:31;30.60;99.90
24085;DHT22;12268;52.110;5.548;2022-08-19T10:07:15;30.60;99.90
24085;DHT22;12268;52.110;5.548;2022-08-19T10:09:40;31.20;99.90
24085;DHT22;12268;52.110;5.548;2022-08-19T10:12:07;31.10;99.90
24085;DHT22;12268;52.110;5.548;2022-08-19T10:14:33;30.60;99.90
24085;DHT22;12268;52.110;5.548;2022-08-19T10:16:59;30.00;99.90
24085;DHT22;12268;52.110;5.548;2022-08-19T10:19:26;29.50;99.90
24085;DHT22;12268;52.110;5.548;2022-08-19T10:21:57;29.10;99.90
24085;DHT22;12268;52.110;5.548;2022-08-19T10:24:23;30.30;99.90
24085;DHT22;12268;52.110;5.548;2022-08-19T10:26:51;31.10;99.90
24085;DHT22;12268;52.110;5.548;2022-08-19T10:29:16;30.10;99.90
24085;DHT22;12268;52.110;5.548;2022-08-19T10:31:42;29.30;99.90
24085;DHT22;12268;52.110;5.548;2022-08-19T10:34:08;29.10;99.90
24085;DHT22;12268;52.110;5.548;2022-08-19T10:36:36;30.00;99.90
24085;DHT22;12268;52.110;5.548;2022-08-19T10:39:05;31.60;99.90
24085;DHT22;12268;52.110;5.548;2022-08-19T10:41:34;32.70;99.90
24085;DHT22;12268;52.110;5.548;2022-08-19T10:44:03;32.30;99.90
24085;DHT22;12268;52.110;5.548;2022-08-19T10:46:30;31.40;99.90
24085;DHT22;12268;52.110;5.548;2022-08-19T10:49:00;30.60;99.90
24085;DHT22;12268;52.110;5.548;2022-08-19T10:51:26;30.50;99.90
24085;DHT22;12268;52.110;5.548;2022-08-19T10:54:11;31.40;99.90
24085;DHT22;12268;52.110;5.548;2022-08-19T10:56:37;32.20;99.90
24085;DHT22;12268;52.110;5.548;2022-08-19T10:59:23;32.70;99.90
24085;DHT22;12268;52.110;5.548;2022-08-19T11:01:50;32.90;99.40
24085;DHT22;12268;52.110;5.548;2022-08-19T11:04:16;34.10;97.80
24085;DHT22;12268;52.110;5.548;2022-08-19T11:06:44;35.00;97.00
24085;DHT22;12268;52.110;5.548;2022-08-19T11:09:11;36.30;95.60
24085;DHT22;12268;52.110;5.548;2022-08-19T11:11:37;37.60;92.10
24085;DHT22;12268;52.110;5.548;2022-08-19T11:14:11;38.30;90.60
24085;DHT22;12268;52.110;5.548;2022-08-19T11:16:38;37.20;91.10
24085;DHT22;12268;52.110;5.548;2022-08-19T11:19:05;36.80;91.30
24085;DHT22;12268;52.110;5.548;2022-08-19T11:21:35;36.50;90.80
24085;DHT22;12268;52.110;5.548;2022-08-19T11:24:16;35.20;92.90
24085;DHT22;12268;52.110;5.548;2022-08-19T11:26:42;34.40;93.40
24085;DHT22;12268;52.110;5.548;2022-08-19T11:29:11;34.00;95.10
24085;DHT22;12268;52.110;5.548;2022-08-19T11:31:40;33.60;95.70
24085;DHT22;12268;52.110;5.548;2022-08-19T11:34:09;32.70;97.30
24085;DHT22;12268;52.110;5.548;2022-08-19T11:36:37;33.50;95.90
24085;DHT22;12268;52.110;5.548;2022-08-19T11:39:05;33.00;96.00
24085;DHT22;12268;52.110;5.548;2022-08-19T11:41:31;33.20;96.40
24085;DHT22;12268;52.110;5.548;2022-08-19T11:43:57;33.30;96.90
24085;DHT22;12268;52.110;5.548;2022-08-19T11:46:24;34.00;96.60
24085;DHT22;12268;52.110;5.548;2022-08-19T11:48:50;33.80;97.00
24085;DHT22;12268;52.110;5.548;2022-08-19T11:51:21;34.00;98.10
24085;DHT22;12268;52.110;5.548;2022-08-19T11:53:47;34.00;96.70
24085;DHT22;12268;52.110;5.548;2022-08-19T11:56:12;34.60;95.90
24085;DHT22;12268;52.110;5.548;2022-08-19T11:58:38;35.50;95.10
24085;DHT22;12268;52.110;5.548;2022-08-19T12:01:06;35.00;93.60
24085;DHT22;12268;52.110;5.548;2022-08-19T12:03:33;35.50;94.60
24085;DHT22;12268;52.110;5.548;2022-08-19T12:06:03;36.10;93.90
24085;DHT22;12268;52.110;5.548;2022-08-19T12:08:29;35.80;94.00
24085;DHT22;12268;52.110;5.548;2022-08-19T12:10:55;35.80;92.90
24085;DHT22;12268;52.110;5.548;2022-08-19T12:13:20;35.30;93.70
24085;DHT22;12268;52.110;5.548;2022-08-19T12:15:47;34.70;94.40
24085;DHT22;12268;52.110;5.548;2022-08-19T12:18:13;34.30;94.80
24085;DHT22;12268;52.110;5.548;2022-08-19T12:20:40;33.30;96.20
24085;DHT22;12268;52.110;5.548;2022-08-19T12:23:08;33.30;97.00
24085;DHT22;12268;52.110;5.548;2022-08-19T12:25:43;34.00;95.50
24085;DHT22;12268;52.110;5.548;2022-08-19T12:28:16;33.70;95.20
24085;DHT22;12268;52.110;5.548;2022-08-19T12:30:42;33.20;95.90
24085;DHT22;12268;52.110;5.548;2022-08-19T12:33:08;32.70;95.90
24085;DHT22;12268;52.110;5.548;2022-08-19T12:35:33;32.30;97.30
24085;DHT22;12268;52.110;5.548;2022-08-19T12:37:59;31.90;97.80
24085;DHT22;12268;52.110;5.548;2022-08-19T12:40:25;31.20;98.10
24085;DHT22;12268;52.110;5.548;2022-08-19T12:42:50;30.60;99.90
24085;DHT22;12268;52.110;5.548;2022-08-19T12:45:16;30.20;99.90
24085;DHT22;12268;52.110;5.548;2022-08-19T12:47:42;29.80;99.90
24085;DHT22;12268;52.110;5.548;2022-08-19T12:50:08;29.30;99.90
24085;DHT22;12268;52.110;5.548;2022-08-19T12:52:36;28.80;99.90
24085;DHT22;12268;52.110;5.548;2022-08-19T12:55:08;28.40;99.90
24085;DHT22;12268;52.110;5.548;2022-08-19T12:57:34;28.10;99.90
24085;DHT22;12268;52.110;5.548;2022-08-19T13:00:07;28.10;99.90
24085;DHT22;12268;52.110;5.548;2022-08-19T13:02:36;28.10;99.90
24085;DHT22;12268;52.110;5.548;2022-08-19T13:05:02;28.00;99.90
24085;DHT22;12268;52.110;5.548;2022-08-19T13:07:28;28.00;99.90
24085;DHT22;12268;52.110;5.548;2022-08-19T13:09:53;28.00;99.90
24085;DHT22;12268;52.110;5.548;2022-08-19T13:12:19;28.10;99.90
24085;DHT22;12268;52.110;5.548;2022-08-19T13:14:45;28.20;99.90
24085;DHT22;12268;52.110;5.548;2022-08-19T13:17:16;28.20;99.90
24085;DHT22;12268;52.110;5.548;2022-08-19T13:19:41;28.30;99.90
24085;DHT22;12268;52.110;5.548;2022-08-19T13:22:07;28.10;99.90
24085;DHT22;12268;52.110;5.548;2022-08-19T13:24:33;28.20;99.90
24085;DHT22;12268;52.110;5.548;2022-08-19T13:26:59;28.00;99.90
24085;DHT22;12268;52.110;5.548;2022-08-19T13:29:25;28.10;99.90
24085;DHT22;12268;52.110;5.548;2022-08-19T13:32:09;28.20;99.90
24085;DHT22;12268;52.110;5.548;2022-08-19T13:34:53;28.10;99.90
24085;DHT22;12268;52.110;5.548;2022-08-19T13:37:19;28.10;99.90
24085;DHT22;12268;52.110;5.548;2022-08-19T13:40:05;28.00;99.90
24085;DHT22;12268;52.110;5.548;2022-08-19T13:42:31;28.00;99.90
24085;DHT22;12268;52.110;5.548;2022-08-19T13:44:57;28.00;99.90
24085;DHT22;12268;52.110;5.548;2022-08-19T13:47:23;27.90;99.90
24085;DHT22;12268;52.110;5.548;2022-08-19T13:49:49;27.90;99.90
24085;DHT22;12268;52.110;5.548;2022-08-19T13:52:15;27.80;99.90
24085;DHT22;12268;52.110;5.548;2022-08-19T13:54:40;27.80;99.90
24085;DHT22;12268;52.110;5.548;2022-08-19T13:57:06;27.80;99.90
24085;DHT22;12268;52.110;5.548;2022-08-19T13:59:31;27.70;99.90
24085;DHT22;12268;52.110;5.548;2022-08-19T14:01:59;27.50;99.90
24085;DHT22;12268;52.110;5.548;2022-08-19T14:04:25;27.10;99.90
24085;DHT22;12268;52.110;5.548;2022-08-19T14:06:50;26.80;99.90
24085;DHT22;12268;52.110;5.548;2022-08-19T14:09:16;26.60;99.90
24085;DHT22;12268;52.110;5.548;2022-08-19T14:11:41;26.30;99.90
24085;DHT22;12268;52.110;5.548;2022-08-19T14:14:07;26.30;99.90
24085;DHT22;12268;52.110;5.548;2022-08-19T14:16:32;26.20;99.90
24085;DHT22;12268;52.110;5.548;2022-08-19T14:18:58;25.50;99.90
24085;DHT22;12268;52.110;5.548;2022-08-19T14:21:24;25.10;99.90
24085;DHT22;12268;52.110;5.548;2022-08-19T14:23:51;24.80;99.90
24085;DHT22;12268;52.110;5.548;2022-08-19T14:26:19;24.70;99.90
24085;DHT22;12268;52.110;5.548;2022-08-19T14:28:45;24.80;99.90
24085;DHT22;12268;52.110;5.548;2022-08-19T14:31:15;24.80;99.90
24085;DHT22;12268;52.110;5.548;2022-08-19T14:33:45;24.60;99.90
24085;DHT22;12268;52.110;5.548;2022-08-19T14:36:11;24.70;99.90
24085;DHT22;12268;52.110;5.548;2022-08-19T14:38:37;24.70;99.90
24085;DHT22;12268;52.110;5.548;2022-08-19T14:41:19;24.70;99.90
24085;DHT22;12268;52.110;5.548;2022-08-19T14:43:46;24.90;99.90
24085;DHT22;12268;52.110;5.548;2022-08-19T14:46:17;24.90;99.90
24085;DHT22;12268;52.110;5.548;2022-08-19T14:48:43;24.80;99.90
24085;DHT22;12268;52.110;5.548;2022-08-19T14:51:09;24.80;99.90
24085;DHT22;12268;52.110;5.548;2022-08-19T14:53:35;24.50;99.90
24085;DHT22;12268;52.110;5.548;2022-08-19T14:56:01;24.50;99.90
24085;DHT22;12268;52.110;5.548;2022-08-19T14:58:31;24.60;99.90
24085;DHT22;12268;52.110;5.548;2022-08-19T15:00:58;24.90;99.90
24085;DHT22;12268;52.110;5.548;2022-08-19T15:03:24;25.10;99.90
24085;DHT22;12268;52.110;5.548;2022-08-19T15:05:51;25.30;99.90
24085;DHT22;12268;52.110;5.548;2022-08-19T15:08:16;25.40;99.90
24085;DHT22;12268;52.110;5.548;2022-08-19T15:10:42;25.40;99.90
24085;DHT22;12268;52.110;5.548;2022-08-19T15:13:08;25.40;99.90
24085;DHT22;12268;52.110;5.548;2022-08-19T15:15:34;25.50;99.90
24085;DHT22;12268;52.110;5.548;2022-08-19T15:18:00;25.40;99.90
24085;DHT22;12268;52.110;5.548;2022-08-19T15:20:28;25.50;99.90
24085;DHT22;12268;52.110;5.548;2022-08-19T15:22:54;25.60;99.90
24085;DHT22;12268;52.110;5.548;2022-08-19T15:25:19;25.70;99.90
24085;DHT22;12268;52.110;5.548;2022-08-19T15:27:46;25.90;99.90
24085;DHT22;12268;52.110;5.548;2022-08-19T15:30:17;26.00;99.90
24085;DHT22;12268;52.110;5.548;2022-08-19T15:32:43;26.20;99.90
24085;DHT22;12268;52.110;5.548;2022-08-19T15:35:08;26.50;99.90
24085;DHT22;12268;52.110;5.548;2022-08-19T15:37:34;26.60;99.90
24085;DHT22;12268;52.110;5.548;2022-08-19T15:39:59;26.80;99.90
24085;DHT22;12268;52.110;5.548;2022-08-19T15:42:25;26.80;99.90
24085;DHT22;12268;52.110;5.548;2022-08-19T15:44:51;26.90;99.90
24085;DHT22;12268;52.110;5.548;2022-08-19T15:47:17;27.10;99.90